Volgoneft-252 — UABX — position and weather

sailwx.info

Track history (hours):
 
Tides and Currents Weather Stations Pressure Air Temp Water Temp Dewpoint Dewpoint Depression Visibility Wind Speed Wind Dir Waves Ship Positions

Volgoneft-252

Last reported at 2018-Feb-17 05:42 UTC. Time now 2018-Feb-21 13:29 UTC.
Position N 44°34' E 037°34'.

Length 133 m; draft 4.3 m.

Type: Tanker. MMSI: 273275000.

Date/timePositionNaut miles runAvg speedWind from/ knotsBaromVisibWave heightAir tempDewpointWater temp
2018-Feb-17 05:42N 44°34' E 037°34'2 5.9
2018-Feb-17 05:25N 44°34' E 037°36'3 6.0
2018-Feb-17 04:57N 44°34' E 037°40'3 6.3
2018-Feb-17 04:30N 44°34' E 037°44'3 6.4
2018-Feb-17 03:59N 44°34' E 037°49'3 5.8
2018-Feb-17 03:30N 44°35' E 037°53'3 4.8
2018-Feb-17 02:59N 44°36' E 037°56'0 0.4
2018-Feb-17 02:29N 44°36' E 037°56'0 0.0
2018-Feb-17 01:59N 44°36' E 037°56'0 0.0
2018-Feb-17 01:26N 44°36' E 037°56'0 0.0
2018-Feb-17 00:56N 44°36' E 037°56'0 0.0
2018-Feb-17 00:26N 44°36' E 037°56'0 0.1
2018-Feb-16 23:59N 44°36' E 037°56'0 0.0
2018-Feb-16 23:29N 44°36' E 037°56'0 0.0
2018-Feb-16 23:00N 44°36' E 037°56'2 4.0
2018-Feb-16 22:30N 44°37' E 037°53'3 6.0
2018-Feb-16 22:00N 44°39' E 037°51'3 5.9
2018-Feb-16 21:31N 44°42' E 037°50'1 1.5
2018-Feb-16 21:00N 44°43' E 037°51'0 0.0
2018-Feb-16 20:29N 44°43' E 037°51'0 0.0
2018-Feb-16 20:00N 44°43' E 037°51'0 0.0
2018-Feb-16 19:30N 44°43' E 037°51'0 0.0
2018-Feb-16 18:59N 44°43' E 037°51'0 0.0
2018-Feb-16 18:31N 44°43' E 037°51'0 0.0
2018-Feb-16 18:00N 44°43' E 037°51'0 0.0
2018-Feb-16 17:30N 44°43' E 037°51'0 0.0
2018-Feb-16 16:59N 44°43' E 037°51'0 0.0
2018-Feb-16 16:30N 44°43' E 037°51'0 0.0
2018-Feb-16 15:59N 44°43' E 037°51'0 0.0
2018-Feb-16 15:30N 44°43' E 037°51'0 0.0
2018-Feb-16 15:00N 44°43' E 037°51'0 0.0
2018-Feb-16 14:31N 44°43' E 037°51'0 0.0
2018-Feb-16 14:00N 44°43' E 037°51'0 0.0
2018-Feb-16 13:30N 44°43' E 037°51'0 0.0
2018-Feb-16 13:00N 44°43' E 037°51'0 0.0
2018-Feb-16 12:30N 44°43' E 037°51'0 0.0
2018-Feb-16 12:00N 44°43' E 037°51'0 0.0
2018-Feb-16 11:30N 44°43' E 037°51'0 0.0
2018-Feb-16 11:00N 44°43' E 037°51'0 0.0
2018-Feb-16 10:30N 44°43' E 037°51'0 0.0
2018-Feb-16 10:00N 44°43' E 037°51'0 0.0
2018-Feb-16 09:30N 44°43' E 037°51'0 0.0
2018-Feb-16 09:00N 44°43' E 037°51'0 0.0
2018-Feb-16 08:30N 44°43' E 037°51'0 0.0
2018-Feb-16 08:00N 44°43' E 037°51'0 0.0
2018-Feb-16 07:30N 44°43' E 037°51'0 0.0
2018-Feb-16 06:59N 44°43' E 037°51'0 0.0
2018-Feb-16 06:29N 44°43' E 037°51'0 0.0
2018-Feb-16 06:00N 44°43' E 037°51'0 0.0
2018-Feb-16 05:30N 44°43' E 037°51'0 0.0
2018-Feb-16 04:59N 44°43' E 037°51'0 0.0
2018-Feb-16 04:30N 44°43' E 037°51'0 0.0
2018-Feb-16 04:00N 44°43' E 037°51'0 0.0
2018-Feb-16 03:30N 44°43' E 037°51'0 0.0
2018-Feb-16 03:00N 44°43' E 037°51'0 0.0
2018-Feb-16 02:30N 44°43' E 037°51'0 0.0
2018-Feb-16 02:00N 44°43' E 037°51'0 0.0
2018-Feb-16 01:30N 44°43' E 037°51'0 0.0
2018-Feb-16 00:59N 44°43' E 037°51'0 0.0
2018-Feb-16 00:30N 44°43' E 037°51'0 0.0
2018-Feb-16 00:00N 44°43' E 037°51'0 0.0
2018-Feb-15 23:30N 44°43' E 037°51'0 0.0
2018-Feb-15 22:58N 44°43' E 037°51'0 0.0
2018-Feb-15 22:30N 44°43' E 037°51'0 0.0
2018-Feb-15 22:00N 44°43' E 037°51'0 0.0
2018-Feb-15 21:30N 44°43' E 037°51'0 0.0
2018-Feb-15 21:00N 44°43' E 037°51'0 0.0
2018-Feb-15 20:29N 44°43' E 037°51'0 0.0
2018-Feb-15 20:00N 44°43' E 037°51'0 0.0
2018-Feb-15 19:30N 44°43' E 037°51'0 0.0
2018-Feb-15 19:00N 44°43' E 037°51'0 0.0
2018-Feb-15 18:29N 44°43' E 037°51'0 0.0
2018-Feb-15 17:59N 44°43' E 037°51'0 0.0
2018-Feb-15 17:30N 44°43' E 037°51'0 0.0
2018-Feb-15 17:00N 44°43' E 037°51'0 0.0
2018-Feb-15 16:30N 44°43' E 037°51'0 0.0
2018-Feb-15 16:00N 44°43' E 037°51'0 0.0
2018-Feb-15 15:29N 44°43' E 037°51'0 0.0
2018-Feb-15 15:00N 44°43' E 037°51'0 0.0
2018-Feb-15 14:30N 44°43' E 037°51'0 0.0
2018-Feb-15 14:00N 44°43' E 037°51'0 0.0
2018-Feb-15 13:30N 44°43' E 037°51'0 0.0
2018-Feb-15 12:59N 44°43' E 037°51'0 0.0
2018-Feb-15 12:30N 44°43' E 037°51'1 1.6
2018-Feb-15 12:00N 44°42' E 037°50'3 5.6
2018-Feb-15 11:29N 44°39' E 037°51'3 6.2
2018-Feb-15 11:01N 44°37' E 037°53'2 3.0
2018-Feb-15 10:29N 44°36' E 037°55'0 0.1
2018-Feb-15 09:59N 44°36' E 037°55'0 0.0
2018-Feb-15 09:29N 44°36' E 037°55'0 0.0
2018-Feb-15 08:53N 44°36' E 037°55'0 0.0
2018-Feb-15 08:29N 44°36' E 037°55'0 0.0
2018-Feb-15 07:59N 44°36' E 037°55'0 0.0
2018-Feb-15 07:29N 44°36' E 037°55'0 0.0
2018-Feb-15 06:59N 44°36' E 037°55'0 0.0
2018-Feb-15 06:23N 44°36' E 037°55'0 0.0
2018-Feb-15 05:59N 44°36' E 037°55'0 0.0
2018-Feb-15 05:29N 44°36' E 037°55'0 0.0
2018-Feb-15 04:59N 44°36' E 037°55'0 0.0
2018-Feb-15 04:29N 44°36' E 037°55'0 0.0
2018-Feb-15 03:56N 44°36' E 037°55'0 0.0
2018-Feb-15 03:29N 44°36' E 037°55'0 0.0
2018-Feb-15 02:56N 44°36' E 037°55'0 0.0
2018-Feb-15 02:26N 44°36' E 037°55'0 0.0
2018-Feb-15 01:59N 44°36' E 037°55'0 0.0
2018-Feb-15 01:29N 44°36' E 037°55'0 0.0
2018-Feb-15 00:47N 44°36' E 037°55'0 0.0
2018-Feb-15 00:29N 44°36' E 037°55'0 0.0
2018-Feb-14 23:47N 44°36' E 037°55'0 0.0
2018-Feb-14 23:26N 44°36' E 037°55'0 0.1
2018-Feb-14 22:50N 44°36' E 037°55'0 0.1
2018-Feb-14 22:23N 44°36' E 037°55'0 0.1
2018-Feb-14 21:56N 44°36' E 037°55'0 0.1
2018-Feb-14 21:26N 44°36' E 037°55'0 0.0
2018-Feb-14 20:59N 44°36' E 037°55'0 0.0
2018-Feb-14 20:29N 44°36' E 037°55'0 0.0
2018-Feb-14 19:59N 44°36' E 037°55'0 0.1
2018-Feb-14 19:26N 44°36' E 037°55'0 0.1
2018-Feb-14 18:53N 44°36' E 037°55'0 0.2
2018-Feb-14 18:29N 44°36' E 037°55'0 0.0
2018-Feb-14 17:59N 44°36' E 037°55'0 0.0
2018-Feb-14 17:29N 44°36' E 037°55'0 0.0
2018-Feb-14 16:59N 44°36' E 037°55'0 0.2
2018-Feb-14 16:29N 44°36' E 037°55'0 0.0
2018-Feb-14 15:59N 44°36' E 037°55'0 0.0
2018-Feb-14 15:29N 44°36' E 037°55'0 0.2
2018-Feb-14 14:56N 44°36' E 037°55'0 0.1
2018-Feb-14 14:26N 44°36' E 037°55'0 0.1
2018-Feb-14 13:59N 44°36' E 037°55'0 0.0
2018-Feb-14 13:29N 44°36' E 037°55'0 0.0
2018-Feb-14 12:56N 44°36' E 037°55'0 0.0
2018-Feb-14 12:29N 44°36' E 037°55'0 0.0
2018-Feb-14 11:59N 44°36' E 037°55'0 0.0
2018-Feb-14 11:29N 44°36' E 037°55'0 0.0
2018-Feb-14 10:59N 44°36' E 037°55'0 0.0
2018-Feb-14 10:29N 44°36' E 037°55'0 0.0
2018-Feb-14 09:59N 44°36' E 037°55'0 0.0
2018-Feb-14 09:29N 44°36' E 037°55'0 0.0
2018-Feb-14 08:59N 44°36' E 037°55'0 0.0
2018-Feb-14 08:29N 44°36' E 037°55'0 0.1
2018-Feb-14 07:59N 44°36' E 037°55'0 0.0
2018-Feb-14 07:29N 44°36' E 037°55'0 0.0
2018-Feb-14 06:59N 44°36' E 037°55'0 0.0
2018-Feb-14 06:29N 44°36' E 037°55'0 0.0
2018-Feb-14 05:50N 44°36' E 037°55'0 0.2
2018-Feb-14 05:26N 44°36' E 037°55'0 0.1
2018-Feb-14 04:59N 44°36' E 037°55'0 0.0
2018-Feb-14 04:29N 44°36' E 037°55'0 0.0
2018-Feb-14 03:59N 44°36' E 037°55'0 0.0
2018-Feb-14 03:26N 44°36' E 037°55'0 0.0
2018-Feb-14 02:59N 44°36' E 037°55'0 0.0
2018-Feb-14 02:29N 44°36' E 037°55'0 0.0
2018-Feb-14 01:56N 44°36' E 037°55'0 0.0
2018-Feb-14 01:29N 44°36' E 037°55'0 0.0
2018-Feb-14 00:59N 44°36' E 037°55'0 0.0
2018-Feb-14 00:29N 44°36' E 037°55'0 0.1
2018-Feb-13 23:56N 44°36' E 037°55'0 0.1
2018-Feb-13 23:26N 44°36' E 037°55'0 0.0
2018-Feb-13 22:59N 44°36' E 037°55'0 0.0
2018-Feb-13 22:17N 44°36' E 037°55'0 0.0
2018-Feb-13 21:59N 44°36' E 037°55'0 0.0
2018-Feb-13 21:29N 44°36' E 037°55'0 0.0
2018-Feb-13 20:53N 44°36' E 037°55'0 0.0
2018-Feb-13 20:23N 44°36' E 037°55'0 0.0
2018-Feb-13 19:59N 44°36' E 037°55'0 0.0
2018-Feb-13 19:29N 44°36' E 037°55'0 0.0
2018-Feb-13 18:59N 44°36' E 037°55'0 0.0
2018-Feb-13 18:29N 44°36' E 037°55'0 0.0
2018-Feb-13 17:59N 44°36' E 037°55'0 0.0
2018-Feb-13 17:29N 44°36' E 037°55'0 0.0
2018-Feb-13 16:59N 44°36' E 037°55'0 0.0
2018-Feb-13 16:29N 44°36' E 037°55'0 0.0
2018-Feb-13 15:59N 44°36' E 037°55'0 0.0
2018-Feb-13 15:26N 44°36' E 037°55'0 0.1
2018-Feb-13 14:59N 44°36' E 037°55'0 0.0
2018-Feb-13 14:26N 44°36' E 037°55'0 0.0
2018-Feb-13 13:59N 44°36' E 037°55'0 0.0
2018-Feb-13 13:29N 44°36' E 037°55'0 0.0
2018-Feb-13 12:59N 44°36' E 037°55'0 0.0
2018-Feb-13 12:29N 44°36' E 037°55'0 0.0
2018-Feb-13 11:59N 44°36' E 037°55'0 0.0
2018-Feb-13 11:29N 44°36' E 037°55'0 0.0
2018-Feb-13 10:59N 44°36' E 037°55'0 0.0
2018-Feb-13 10:29N 44°36' E 037°55'0 0.0
2018-Feb-13 09:59N 44°36' E 037°55'0 0.0
2018-Feb-13 09:29N 44°36' E 037°55'0 0.0
2018-Feb-13 08:56N 44°36' E 037°55'0 0.1
2018-Feb-13 08:29N 44°36' E 037°55'0 0.0
2018-Feb-13 07:59N 44°36' E 037°55'0 0.0
2018-Feb-13 07:29N 44°36' E 037°55'0 0.0
2018-Feb-13 06:56N 44°36' E 037°55'0 0.0
2018-Feb-13 06:29N 44°36' E 037°55'0 0.0
2018-Feb-13 05:59N 44°36' E 037°55'0 0.0
2018-Feb-13 05:29N 44°36' E 037°55'0 0.0
2018-Feb-13 04:59N 44°36' E 037°55'0 0.0
2018-Feb-13 04:29N 44°36' E 037°55'0 0.0
2018-Feb-13 03:59N 44°36' E 037°55'0 0.0
2018-Feb-13 03:29N 44°36' E 037°55'0 0.0
2018-Feb-13 02:59N 44°36' E 037°55'0 0.0
2018-Feb-13 02:29N 44°36' E 037°55'0 0.0
2018-Feb-13 01:59N 44°36' E 037°55'0 0.0
2018-Feb-13 01:26N 44°36' E 037°55'0 0.0
2018-Feb-13 00:59N 44°36' E 037°55'0 0.0
2018-Feb-13 00:29N 44°36' E 037°55'0 0.0
2018-Feb-12 23:56N 44°36' E 037°55'0 0.1
2018-Feb-12 23:29N 44°36' E 037°55'0 0.1
2018-Feb-12 22:59N 44°36' E 037°55'0 0.2
2018-Feb-12 22:30N 44°36' E 037°55'2 3.6
2018-Feb-12 22:01N 44°35' E 037°53'4 7.1
2018-Feb-12 21:30N 44°34' E 037°48'  
Track history (hours):
 
Tides and Currents Weather Stations Pressure Air Temp Water Temp Dewpoint Dewpoint Depression Visibility Wind Speed Wind Dir Waves Ship Positions

Volgoneft-252

Last reported at 2018-Feb-17 05:42 UTC. Time now 2018-Feb-21 13:29 UTC.
Position N 44°34' E 037°34'.

Length 133 m; draft 4.3 m.

Type: Tanker. MMSI: 273275000.

Date/timePositionNaut miles runAvg speedWind from/ knotsBaromVisibWave heightAir tempDewpointWater temp
2018-Feb-17 05:42N 44°34' E 037°34'2 5.9
2018-Feb-17 05:25N 44°34' E 037°36'3 6.0
2018-Feb-17 04:57N 44°34' E 037°40'3 6.3
2018-Feb-17 04:30N 44°34' E 037°44'3 6.4
2018-Feb-17 03:59N 44°34' E 037°49'3 5.8
2018-Feb-17 03:30N 44°35' E 037°53'3 4.8
2018-Feb-17 02:59N 44°36' E 037°56'0 0.4
2018-Feb-17 02:29N 44°36' E 037°56'0 0.0
2018-Feb-17 01:59N 44°36' E 037°56'0 0.0
2018-Feb-17 01:26N 44°36' E 037°56'0 0.0
2018-Feb-17 00:56N 44°36' E 037°56'0 0.0
2018-Feb-17 00:26N 44°36' E 037°56'0 0.1
2018-Feb-16 23:59N 44°36' E 037°56'0 0.0
2018-Feb-16 23:29N 44°36' E 037°56'0 0.0
2018-Feb-16 23:00N 44°36' E 037°56'2 4.0
2018-Feb-16 22:30N 44°37' E 037°53'3 6.0
2018-Feb-16 22:00N 44°39' E 037°51'3 5.9
2018-Feb-16 21:31N 44°42' E 037°50'1 1.5
2018-Feb-16 21:00N 44°43' E 037°51'0 0.0
2018-Feb-16 20:29N 44°43' E 037°51'0 0.0
2018-Feb-16 20:00N 44°43' E 037°51'0 0.0
2018-Feb-16 19:30N 44°43' E 037°51'0 0.0
2018-Feb-16 18:59N 44°43' E 037°51'0 0.0
2018-Feb-16 18:31N 44°43' E 037°51'0 0.0
2018-Feb-16 18:00N 44°43' E 037°51'0 0.0
2018-Feb-16 17:30N 44°43' E 037°51'0 0.0
2018-Feb-16 16:59N 44°43' E 037°51'0 0.0
2018-Feb-16 16:30N 44°43' E 037°51'0 0.0
2018-Feb-16 15:59N 44°43' E 037°51'0 0.0
2018-Feb-16 15:30N 44°43' E 037°51'0 0.0
2018-Feb-16 15:00N 44°43' E 037°51'0 0.0
2018-Feb-16 14:31N 44°43' E 037°51'0 0.0
2018-Feb-16 14:00N 44°43' E 037°51'0 0.0
2018-Feb-16 13:30N 44°43' E 037°51'0 0.0
2018-Feb-16 13:00N 44°43' E 037°51'0 0.0
2018-Feb-16 12:30N 44°43' E 037°51'0 0.0
2018-Feb-16 12:00N 44°43' E 037°51'0 0.0
2018-Feb-16 11:30N 44°43' E 037°51'0 0.0
2018-Feb-16 11:00N 44°43' E 037°51'0 0.0
2018-Feb-16 10:30N 44°43' E 037°51'0 0.0
2018-Feb-16 10:00N 44°43' E 037°51'0 0.0
2018-Feb-16 09:30N 44°43' E 037°51'0 0.0
2018-Feb-16 09:00N 44°43' E 037°51'0 0.0
2018-Feb-16 08:30N 44°43' E 037°51'0 0.0
2018-Feb-16 08:00N 44°43' E 037°51'0 0.0
2018-Feb-16 07:30N 44°43' E 037°51'0 0.0
2018-Feb-16 06:59N 44°43' E 037°51'0 0.0
2018-Feb-16 06:29N 44°43' E 037°51'0 0.0
2018-Feb-16 06:00N 44°43' E 037°51'0 0.0
2018-Feb-16 05:30N 44°43' E 037°51'0 0.0
2018-Feb-16 04:59N 44°43' E 037°51'0 0.0
2018-Feb-16 04:30N 44°43' E 037°51'0 0.0
2018-Feb-16 04:00N 44°43' E 037°51'0 0.0
2018-Feb-16 03:30N 44°43' E 037°51'0 0.0
2018-Feb-16 03:00N 44°43' E 037°51'0 0.0
2018-Feb-16 02:30N 44°43' E 037°51'0 0.0
2018-Feb-16 02:00N 44°43' E 037°51'0 0.0
2018-Feb-16 01:30N 44°43' E 037°51'0 0.0
2018-Feb-16 00:59N 44°43' E 037°51'0 0.0
2018-Feb-16 00:30N 44°43' E 037°51'0 0.0
2018-Feb-16 00:00N 44°43' E 037°51'0 0.0
2018-Feb-15 23:30N 44°43' E 037°51'0 0.0
2018-Feb-15 22:58N 44°43' E 037°51'0 0.0
2018-Feb-15 22:30N 44°43' E 037°51'0 0.0
2018-Feb-15 22:00N 44°43' E 037°51'0 0.0
2018-Feb-15 21:30N 44°43' E 037°51'0 0.0
2018-Feb-15 21:00N 44°43' E 037°51'0 0.0
2018-Feb-15 20:29N 44°43' E 037°51'0 0.0
2018-Feb-15 20:00N 44°43' E 037°51'0 0.0
2018-Feb-15 19:30N 44°43' E 037°51'0 0.0
2018-Feb-15 19:00N 44°43' E 037°51'0 0.0
2018-Feb-15 18:29N 44°43' E 037°51'0 0.0
2018-Feb-15 17:59N 44°43' E 037°51'0 0.0
2018-Feb-15 17:30N 44°43' E 037°51'0 0.0
2018-Feb-15 17:00N 44°43' E 037°51'0 0.0
2018-Feb-15 16:30N 44°43' E 037°51'0 0.0
2018-Feb-15 16:00N 44°43' E 037°51'0 0.0
2018-Feb-15 15:29N 44°43' E 037°51'0 0.0
2018-Feb-15 15:00N 44°43' E 037°51'0 0.0
2018-Feb-15 14:30N 44°43' E 037°51'0 0.0
2018-Feb-15 14:00N 44°43' E 037°51'0 0.0
2018-Feb-15 13:30N 44°43' E 037°51'0 0.0
2018-Feb-15 12:59N 44°43' E 037°51'0 0.0
2018-Feb-15 12:30N 44°43' E 037°51'1 1.6
2018-Feb-15 12:00N 44°42' E 037°50'3 5.6
2018-Feb-15 11:29N 44°39' E 037°51'3 6.2
2018-Feb-15 11:01N 44°37' E 037°53'2 3.0
2018-Feb-15 10:29N 44°36' E 037°55'0 0.1
2018-Feb-15 09:59N 44°36' E 037°55'0 0.0
2018-Feb-15 09:29N 44°36' E 037°55'0 0.0
2018-Feb-15 08:53N 44°36' E 037°55'0 0.0
2018-Feb-15 08:29N 44°36' E 037°55'0 0.0
2018-Feb-15 07:59N 44°36' E 037°55'0 0.0
2018-Feb-15 07:29N 44°36' E 037°55'0 0.0
2018-Feb-15 06:59N 44°36' E 037°55'0 0.0
2018-Feb-15 06:23N 44°36' E 037°55'0 0.0
2018-Feb-15 05:59N 44°36' E 037°55'0 0.0
2018-Feb-15 05:29N 44°36' E 037°55'0 0.0
2018-Feb-15 04:59N 44°36' E 037°55'0 0.0
2018-Feb-15 04:29N 44°36' E 037°55'0 0.0
2018-Feb-15 03:56N 44°36' E 037°55'0 0.0
2018-Feb-15 03:29N 44°36' E 037°55'0 0.0
2018-Feb-15 02:56N 44°36' E 037°55'0 0.0
2018-Feb-15 02:26N 44°36' E 037°55'0 0.0
2018-Feb-15 01:59N 44°36' E 037°55'0 0.0
2018-Feb-15 01:29N 44°36' E 037°55'0 0.0
2018-Feb-15 00:47N 44°36' E 037°55'0 0.0
2018-Feb-15 00:29N 44°36' E 037°55'0 0.0
2018-Feb-14 23:47N 44°36' E 037°55'0 0.0
2018-Feb-14 23:26N 44°36' E 037°55'0 0.1
2018-Feb-14 22:50N 44°36' E 037°55'0 0.1
2018-Feb-14 22:23N 44°36' E 037°55'0 0.1
2018-Feb-14 21:56N 44°36' E 037°55'0 0.1
2018-Feb-14 21:26N 44°36' E 037°55'0 0.0
2018-Feb-14 20:59N 44°36' E 037°55'0 0.0
2018-Feb-14 20:29N 44°36' E 037°55'0 0.0
2018-Feb-14 19:59N 44°36' E 037°55'0 0.1
2018-Feb-14 19:26N 44°36' E 037°55'0 0.1
2018-Feb-14 18:53N 44°36' E 037°55'0 0.2
2018-Feb-14 18:29N 44°36' E 037°55'0 0.0
2018-Feb-14 17:59N 44°36' E 037°55'0 0.0
2018-Feb-14 17:29N 44°36' E 037°55'0 0.0
2018-Feb-14 16:59N 44°36' E 037°55'0 0.2
2018-Feb-14 16:29N 44°36' E 037°55'0 0.0
2018-Feb-14 15:59N 44°36' E 037°55'0 0.0
2018-Feb-14 15:29N 44°36' E 037°55'0 0.2
2018-Feb-14 14:56N 44°36' E 037°55'0 0.1
2018-Feb-14 14:26N 44°36' E 037°55'0 0.1
2018-Feb-14 13:59N 44°36' E 037°55'0 0.0
2018-Feb-14 13:29N 44°36' E 037°55'0 0.0
2018-Feb-14 12:56N 44°36' E 037°55'0 0.0
2018-Feb-14 12:29N 44°36' E 037°55'0 0.0
2018-Feb-14 11:59N 44°36' E 037°55'0 0.0
2018-Feb-14 11:29N 44°36' E 037°55'0 0.0
2018-Feb-14 10:59N 44°36' E 037°55'0 0.0
2018-Feb-14 10:29N 44°36' E 037°55'0 0.0
2018-Feb-14 09:59N 44°36' E 037°55'0 0.0
2018-Feb-14 09:29N 44°36' E 037°55'0 0.0
2018-Feb-14 08:59N 44°36' E 037°55'0 0.0
2018-Feb-14 08:29N 44°36' E 037°55'0 0.1
2018-Feb-14 07:59N 44°36' E 037°55'0 0.0
2018-Feb-14 07:29N 44°36' E 037°55'0 0.0
2018-Feb-14 06:59N 44°36' E 037°55'0 0.0
2018-Feb-14 06:29N 44°36' E 037°55'0 0.0
2018-Feb-14 05:50N 44°36' E 037°55'0 0.2
2018-Feb-14 05:26N 44°36' E 037°55'0 0.1
2018-Feb-14 04:59N 44°36' E 037°55'0 0.0
2018-Feb-14 04:29N 44°36' E 037°55'0 0.0
2018-Feb-14 03:59N 44°36' E 037°55'0 0.0
2018-Feb-14 03:26N 44°36' E 037°55'0 0.0
2018-Feb-14 02:59N 44°36' E 037°55'0 0.0
2018-Feb-14 02:29N 44°36' E 037°55'0 0.0
2018-Feb-14 01:56N 44°36' E 037°55'0 0.0
2018-Feb-14 01:29N 44°36' E 037°55'0 0.0
2018-Feb-14 00:59N 44°36' E 037°55'0 0.0
2018-Feb-14 00:29N 44°36' E 037°55'0 0.1
2018-Feb-13 23:56N 44°36' E 037°55'0 0.1
2018-Feb-13 23:26N 44°36' E 037°55'0 0.0
2018-Feb-13 22:59N 44°36' E 037°55'0 0.0
2018-Feb-13 22:17N 44°36' E 037°55'0 0.0
2018-Feb-13 21:59N 44°36' E 037°55'0 0.0
2018-Feb-13 21:29N 44°36' E 037°55'0 0.0
2018-Feb-13 20:53N 44°36' E 037°55'0 0.0
2018-Feb-13 20:23N 44°36' E 037°55'0 0.0
2018-Feb-13 19:59N 44°36' E 037°55'0 0.0
2018-Feb-13 19:29N 44°36' E 037°55'0 0.0
2018-Feb-13 18:59N 44°36' E 037°55'0 0.0
2018-Feb-13 18:29N 44°36' E 037°55'0 0.0
2018-Feb-13 17:59N 44°36' E 037°55'0 0.0
2018-Feb-13 17:29N 44°36' E 037°55'0 0.0
2018-Feb-13 16:59N 44°36' E 037°55'0 0.0
2018-Feb-13 16:29N 44°36' E 037°55'0 0.0
2018-Feb-13 15:59N 44°36' E 037°55'0 0.0
2018-Feb-13 15:26N 44°36' E 037°55'0 0.1
2018-Feb-13 14:59N 44°36' E 037°55'0 0.0
2018-Feb-13 14:26N 44°36' E 037°55'0 0.0
2018-Feb-13 13:59N 44°36' E 037°55'0 0.0
2018-Feb-13 13:29N 44°36' E 037°55'0 0.0
2018-Feb-13 12:59N 44°36' E 037°55'0 0.0
2018-Feb-13 12:29N 44°36' E 037°55'0 0.0
2018-Feb-13 11:59N 44°36' E 037°55'0 0.0
2018-Feb-13 11:29N 44°36' E 037°55'0 0.0
2018-Feb-13 10:59N 44°36' E 037°55'0 0.0
2018-Feb-13 10:29N 44°36' E 037°55'0 0.0
2018-Feb-13 09:59N 44°36' E 037°55'0 0.0
2018-Feb-13 09:29N 44°36' E 037°55'0 0.0
2018-Feb-13 08:56N 44°36' E 037°55'0 0.1
2018-Feb-13 08:29N 44°36' E 037°55'0 0.0
2018-Feb-13 07:59N 44°36' E 037°55'0 0.0
2018-Feb-13 07:29N 44°36' E 037°55'0 0.0
2018-Feb-13 06:56N 44°36' E 037°55'0 0.0
2018-Feb-13 06:29N 44°36' E 037°55'0 0.0
2018-Feb-13 05:59N 44°36' E 037°55'0 0.0
2018-Feb-13 05:29N 44°36' E 037°55'0 0.0
2018-Feb-13 04:59N 44°36' E 037°55'0 0.0
2018-Feb-13 04:29N 44°36' E 037°55'0 0.0
2018-Feb-13 03:59N 44°36' E 037°55'0 0.0
2018-Feb-13 03:29N 44°36' E 037°55'0 0.0
2018-Feb-13 02:59N 44°36' E 037°55'0 0.0
2018-Feb-13 02:29N 44°36' E 037°55'0 0.0
2018-Feb-13 01:59N 44°36' E 037°55'0 0.0
2018-Feb-13 01:26N 44°36' E 037°55'0 0.0
2018-Feb-13 00:59N 44°36' E 037°55'0 0.0
2018-Feb-13 00:29N 44°36' E 037°55'0 0.0
2018-Feb-12 23:56N 44°36' E 037°55'0 0.1
2018-Feb-12 23:29N 44°36' E 037°55'0 0.1
2018-Feb-12 22:59N 44°36' E 037°55'0 0.2
2018-Feb-12 22:30N 44°36' E 037°55'2 3.6
2018-Feb-12 22:01N 44°35' E 037°53'4 7.1
2018-Feb-12 21:30N 44°34' E 037°48'  

Dump ship's entire track history